createdAt,value
2019-03-01T00:00:00.396Z,63.30
2019-03-01T00:01:02.707Z,58.83
2019-03-01T00:01:40.573Z,56.77
2019-03-01T00:02:11.753Z,50.67
2019-03-01T00:02:42.933Z,54.47
2019-03-01T00:03:14.108Z,48.37
2019-03-01T00:03:50.477Z,46.13
2019-03-01T00:04:27.373Z,54.33
2019-03-01T00:05:05.279Z,57.07
2019-03-01T00:05:59.887Z,56.43
2019-03-01T00:06:48.491Z,52.03
2019-03-01T00:08:07.587Z,49.90
2019-03-01T00:09:18.965Z,51.93
2019-03-01T00:10:01.752Z,57.10
2019-03-01T00:11:07.142Z,56.50
2019-03-01T00:11:53.877Z,54.27
2019-03-01T00:12:57.743Z,54.67
2019-03-01T00:13:54.908Z,58.97
2019-03-01T00:14:49.678Z,58.00
2019-03-01T00:15:26.660Z,62.10
2019-03-01T00:16:12.636Z,58.30
2019-03-01T00:17:10.748Z,52.17
2019-03-01T00:17:56.342Z,61.53
2019-03-01T00:18:45.110Z,58.57
2019-03-01T00:19:44.472Z,59.30
2019-03-01T00:20:30.113Z,60.50
2019-03-01T00:21:18.593Z,58.47
2019-03-01T00:22:25.771Z,54.30
2019-03-01T00:23:25.027Z,56.27
2019-03-01T00:24:10.652Z,59.27
2019-03-01T00:25:05.429Z,58.40
2019-03-01T00:25:48.165Z,53.80
2019-03-01T00:26:31.027Z,57.07
2019-03-01T00:27:10.576Z,56.90
2019-03-01T00:28:11.639Z,70.00
2019-03-01T00:29:21.227Z,68.77
2019-03-01T00:30:29.801Z,63.30
2019-03-01T00:31:24.511Z,63.40
2019-03-01T00:32:33.915Z,62.30
2019-03-01T00:33:26.214Z,76.37
2019-03-01T00:34:31.088Z,64.23
2019-03-01T00:35:13.568Z,62.13
2019-03-01T00:36:16.884Z,61.57
2019-03-01T00:37:15.811Z,67.70
2019-03-01T00:38:15.082Z,59.93
2019-03-01T00:39:17.429Z,64.10
2019-03-01T00:40:20.796Z,59.63
2019-03-01T00:41:24.691Z,55.97
2019-03-01T00:42:16.442Z,56.10
2019-03-01T00:43:11.144Z,53.83
2019-03-01T00:44:02.478Z,49.03
2019-03-01T00:44:40.319Z,50.53
2019-03-01T00:45:11.477Z,51.87
2019-03-01T00:45:42.659Z,50.20
2019-03-01T00:46:13.831Z,53.97
2019-03-01T00:46:45.002Z,50.90
2019-03-01T00:47:16.164Z,51.80
2019-03-01T00:47:47.365Z,57.67
2019-03-01T00:48:18.526Z,57.07
2019-03-01T00:48:49.743Z,54.67
2019-03-01T00:49:21.897Z,53.90
2019-03-01T00:49:53.136Z,58.77
2019-03-01T00:50:24.295Z,55.37
2019-03-01T00:50:55.512Z,54.67
2019-03-01T00:51:26.647Z,59.33
2019-03-01T00:51:57.908Z,53.77
2019-03-01T00:52:29.107Z,50.63
2019-03-01T00:53:00.259Z,56.90
2019-03-01T00:53:31.462Z,46.90
2019-03-01T00:54:02.615Z,49.10
2019-03-01T00:54:35.077Z,54.23
2019-03-01T00:55:07.201Z,54.77
2019-03-01T00:55:38.549Z,50.17
2019-03-01T00:56:09.789Z,51.80
2019-03-01T00:56:40.989Z,51.83
2019-03-01T00:57:12.231Z,54.97
2019-03-01T00:57:43.401Z,49.83
2019-03-01T00:58:14.554Z,51.90
2019-03-01T00:58:45.762Z,52.60
2019-03-01T00:59:16.912Z,52.47
2019-03-01T00:59:48.132Z,50.10
2019-03-01T01:00:36.373Z,57.93
2019-03-01T01:01:07.600Z,52.17
2019-03-01T01:01:38.765Z,50.67
2019-03-01T01:02:10.082Z,51.00
2019-03-01T01:02:41.266Z,54.57
2019-03-01T01:03:12.440Z,55.57
2019-03-01T01:03:43.616Z,56.23
2019-03-01T01:04:14.798Z,58.80
2019-03-01T01:04:45.960Z,65.37
2019-03-01T01:05:17.124Z,56.03
2019-03-01T01:05:48.332Z,60.50
2019-03-01T01:06:19.522Z,59.20
2019-03-01T01:06:50.767Z,61.40
2019-03-01T01:07:23.017Z,58.83
2019-03-01T01:07:54.217Z,64.17
2019-03-01T01:08:25.468Z,73.70
2019-03-01T01:08:56.764Z,67.00
2019-03-01T01:12:48.552Z,51.47
2019-03-01T01:13:20.725Z,61.03
2019-03-01T01:13:51.911Z,64.87
2019-03-01T01:14:23.072Z,56.97
2019-03-01T01:14:54.275Z,52.90
2019-03-01T01:15:25.427Z,57.67
2019-03-01T01:15:56.650Z,50.83
2019-03-01T01:16:27.786Z,51.30
2019-03-01T01:16:59.000Z,53.50
2019-03-01T01:17:30.158Z,52.63
2019-03-01T01:18:01.359Z,52.70
2019-03-01T01:18:32.535Z,63.20
2019-03-01T01:19:03.721Z,63.93
2019-03-01T01:19:35.034Z,60.63
2019-03-01T01:20:08.241Z,61.13
2019-03-01T01:20:39.409Z,57.63
2019-03-01T01:21:10.605Z,62.60
2019-03-01T01:21:41.760Z,61.60
2019-03-01T01:22:12.968Z,48.27
2019-03-01T01:22:44.155Z,53.83
2019-03-01T01:23:15.377Z,52.93
2019-03-01T01:23:46.536Z,52.60
2019-03-01T01:24:17.734Z,58.70
2019-03-01T01:24:48.923Z,49.30
2019-03-01T01:25:20.110Z,51.43
2019-03-01T01:25:51.298Z,48.07
2019-03-01T01:26:22.498Z,51.60
2019-03-01T01:26:53.664Z,55.37
2019-03-01T01:27:24.860Z,50.50
2019-03-01T01:27:56.065Z,52.30
2019-03-01T01:28:27.236Z,48.43
2019-03-01T01:28:58.430Z,51.67
2019-03-01T01:29:29.629Z,52.63
2019-03-01T01:30:00.830Z,51.20
2019-03-01T01:30:31.998Z,52.73
2019-03-01T01:31:03.210Z,45.83
2019-03-01T01:31:34.366Z,47.43
2019-03-01T01:32:05.552Z,49.00
2019-03-01T01:32:36.700Z,51.30
2019-03-01T01:33:07.923Z,47.50
2019-03-01T01:33:39.066Z,46.43
2019-03-01T01:34:10.268Z,47.63
2019-03-01T01:34:41.420Z,49.13
2019-03-01T01:35:12.618Z,51.87
2019-03-01T01:35:43.791Z,49.90
2019-03-01T01:36:14.991Z,51.00
2019-03-01T01:36:46.167Z,47.87
2019-03-01T01:37:17.372Z,48.27
2019-03-01T01:37:48.549Z,46.13
2019-03-01T01:38:19.749Z,46.17
2019-03-01T01:38:50.893Z,41.57
2019-03-01T01:39:23.176Z,45.13
2019-03-01T01:39:54.461Z,50.30
2019-03-01T01:40:25.667Z,44.97
2019-03-01T01:40:56.811Z,45.13
2019-03-01T01:41:27.997Z,44.87
2019-03-01T01:41:59.159Z,39.37
2019-03-01T01:42:30.371Z,44.40
2019-03-01T01:43:01.523Z,43.10
2019-03-01T01:43:32.723Z,45.73
2019-03-01T01:44:03.899Z,44.67
2019-03-01T01:44:35.240Z,45.13
2019-03-01T01:45:09.308Z,45.53
2019-03-01T01:45:40.516Z,48.80
2019-03-01T01:46:11.678Z,51.80
2019-03-01T01:46:42.880Z,57.23
2019-03-01T01:47:14.038Z,51.87
2019-03-01T01:47:45.236Z,51.80
2019-03-01T01:48:16.420Z,55.30
2019-03-01T01:48:47.592Z,55.13
2019-03-01T01:49:18.765Z,58.60
2019-03-01T01:49:49.959Z,57.57
2019-03-01T01:50:21.134Z,57.57
2019-03-01T01:50:52.322Z,66.67
2019-03-01T01:51:23.494Z,54.53
2019-03-01T01:51:54.683Z,59.83
2019-03-01T01:52:25.879Z,59.07
2019-03-01T01:52:57.079Z,54.10
2019-03-01T01:53:28.279Z,51.43
2019-03-01T01:54:00.472Z,54.43
2019-03-01T01:54:31.666Z,56.33
2019-03-01T01:55:04.747Z,60.97
2019-03-01T01:55:35.935Z,55.27
2019-03-01T01:56:07.119Z,52.93
2019-03-01T01:56:38.290Z,52.53
2019-03-01T01:57:09.465Z,44.70
2019-03-01T01:57:40.676Z,48.60
2019-03-01T01:58:11.831Z,53.40
2019-03-01T01:58:43.035Z,49.10
2019-03-01T01:59:14.187Z,48.37
2019-03-01T01:59:45.422Z,49.70
2019-03-01T02:00:16.582Z,46.63
2019-03-01T02:00:47.779Z,51.30
2019-03-01T02:01:18.919Z,52.00
2019-03-01T02:01:50.114Z,48.03
2019-03-01T02:02:21.273Z,56.03
2019-03-01T02:02:52.505Z,49.57
2019-03-01T02:03:23.695Z,52.50
2019-03-01T02:03:54.932Z,52.93
2019-03-01T02:04:26.172Z,47.17
2019-03-01T02:04:57.400Z,56.17
2019-03-01T02:05:28.622Z,50.10
2019-03-01T02:05:59.884Z,49.03
2019-03-01T02:06:31.123Z,50.93
2019-03-01T02:07:03.357Z,51.43
2019-03-01T02:07:34.868Z,47.87
2019-03-01T02:08:06.113Z,54.43
2019-03-01T02:08:37.444Z,49.67
2019-03-01T02:09:19.468Z,43.67
2019-03-01T02:09:50.672Z,45.93
2019-03-01T02:10:21.834Z,44.80
2019-03-01T02:10:53.040Z,47.93
2019-03-01T02:11:24.203Z,48.40
2019-03-01T02:11:55.394Z,45.17
2019-03-01T02:12:27.555Z,46.70
2019-03-01T02:12:58.748Z,49.43
2019-03-01T02:13:29.969Z,45.53
2019-03-01T02:14:01.199Z,50.53
2019-03-01T02:14:32.425Z,45.23
2019-03-01T02:15:08.460Z,46.97
2019-03-01T02:15:39.695Z,51.97
2019-03-01T02:16:10.922Z,52.27
2019-03-01T02:16:42.151Z,56.23
2019-03-01T02:17:13.393Z,53.13
2019-03-01T02:17:44.623Z,54.60
2019-03-01T02:18:15.841Z,51.70
2019-03-01T02:18:47.197Z,54.03
2019-03-01T02:19:18.364Z,53.20
2019-03-01T02:19:49.571Z,51.83
2019-03-01T02:20:20.720Z,47.60
2019-03-01T02:20:51.923Z,48.87
2019-03-01T02:21:24.082Z,49.63
2019-03-01T02:21:55.281Z,51.90
2019-03-01T02:22:26.447Z,50.30
2019-03-01T02:22:57.650Z,45.93
2019-03-01T02:23:28.803Z,47.70
2019-03-01T02:24:00.007Z,51.63
2019-03-01T02:24:31.157Z,51.60
2019-03-01T02:25:02.470Z,52.07
2019-03-01T02:25:34.692Z,47.10
2019-03-01T02:26:05.937Z,52.77
2019-03-01T02:26:37.124Z,44.70
2019-03-01T02:27:27.289Z,48.50
2019-03-01T02:27:58.536Z,46.60
2019-03-01T02:28:29.709Z,48.13
2019-03-01T02:29:00.914Z,45.00
2019-03-01T02:29:32.104Z,53.17
2019-03-01T02:30:16.970Z,48.07
2019-03-01T02:30:59.038Z,53.13
2019-03-01T02:31:30.543Z,51.73
2019-03-01T02:32:01.742Z,53.63
2019-03-01T02:32:37.458Z,53.77
2019-03-01T02:33:08.712Z,54.00
2019-03-01T02:33:39.896Z,58.77
2019-03-01T02:34:11.099Z,57.07
2019-03-01T02:34:42.271Z,60.27
2019-03-01T02:35:17.862Z,57.10
2019-03-01T02:35:49.133Z,54.80
2019-03-01T02:36:20.309Z,53.53
2019-03-01T02:36:51.488Z,59.37
2019-03-01T02:37:22.667Z,49.73
2019-03-01T02:37:53.868Z,51.40
2019-03-01T02:38:25.051Z,49.57
2019-03-01T02:38:56.253Z,51.63
2019-03-01T02:39:27.431Z,53.80
2019-03-01T02:39:59.714Z,54.07
2019-03-01T02:40:34.062Z,46.13
2019-03-01T02:41:05.265Z,47.20
2019-03-01T02:41:37.419Z,53.43
2019-03-01T02:42:08.607Z,52.27
2019-03-01T02:42:39.816Z,52.47
2019-03-01T02:43:11.019Z,51.90
2019-03-01T02:43:42.227Z,50.03
2019-03-01T02:44:13.414Z,53.07
2019-03-01T02:44:44.566Z,53.83
2019-03-01T02:45:20.172Z,48.80
2019-03-01T02:45:51.415Z,51.10
2019-03-01T02:46:22.635Z,48.53
2019-03-01T02:46:53.793Z,52.03
2019-03-01T02:47:25.002Z,51.70
2019-03-01T02:47:56.170Z,49.97
2019-03-01T02:48:27.397Z,52.57
2019-03-01T02:48:58.575Z,53.83
2019-03-01T02:49:29.758Z,49.30
2019-03-01T02:50:01.369Z,50.90
2019-03-01T02:50:32.644Z,52.17
2019-03-01T02:51:03.842Z,46.53
2019-03-01T02:51:35.195Z,45.27
2019-03-01T02:52:06.373Z,46.90
2019-03-01T02:52:37.646Z,47.80
2019-03-01T02:53:08.899Z,42.87
2019-03-01T02:53:40.237Z,50.17
2019-03-01T02:54:11.524Z,42.27
2019-03-01T02:54:42.701Z,44.23
2019-03-01T02:55:16.508Z,46.43
2019-03-01T02:55:47.760Z,45.67
2019-03-01T02:56:18.950Z,49.60
2019-03-01T02:56:50.097Z,44.93
2019-03-01T02:57:21.321Z,47.30
2019-03-01T02:57:52.482Z,49.00
2019-03-01T02:58:23.671Z,49.73
2019-03-01T02:58:54.829Z,44.37
2019-03-01T02:59:26.033Z,50.80
2019-03-01T02:59:57.187Z,54.67
2019-03-01T03:00:29.611Z,48.23
2019-03-01T03:01:00.859Z,51.90
2019-03-01T03:01:32.061Z,52.37
2019-03-01T03:02:03.246Z,51.90
2019-03-01T03:02:34.493Z,52.80
2019-03-01T03:03:05.649Z,51.20
2019-03-01T03:03:36.860Z,49.13
2019-03-01T03:04:08.067Z,53.37
2019-03-01T03:04:39.296Z,48.40
2019-03-01T03:05:10.533Z,50.67
2019-03-01T03:06:01.468Z,50.13
2019-03-01T03:06:37.442Z,50.07
2019-03-01T03:07:13.281Z,43.40
2019-03-01T03:07:59.121Z,43.97
2019-03-01T03:08:30.345Z,43.70
2019-03-01T03:09:01.686Z,41.27
2019-03-01T03:09:35.033Z,46.13
2019-03-01T03:10:07.093Z,45.73
2019-03-01T03:10:38.287Z,50.10
2019-03-01T03:11:09.459Z,44.37
2019-03-01T03:11:40.661Z,42.70
2019-03-01T03:12:11.816Z,50.17
2019-03-01T03:12:44.327Z,46.60
2019-03-01T03:13:15.486Z,46.40
2019-03-01T03:13:46.716Z,41.30
2019-03-01T03:14:17.966Z,48.57
2019-03-01T03:14:49.165Z,64.77
2019-03-01T03:15:30.835Z,89.30
2019-03-01T03:16:03.040Z,90.63
2019-03-01T03:16:34.300Z,76.53
2019-03-01T03:17:05.571Z,80.00
2019-03-01T03:17:36.726Z,71.37
2019-03-01T03:18:08.158Z,67.23
2019-03-01T03:18:39.327Z,58.30
2019-03-01T03:19:10.507Z,53.43
2019-03-01T03:19:41.721Z,49.67
2019-03-01T03:20:12.954Z,54.37
2019-03-01T03:20:44.185Z,46.77
2019-03-01T03:21:15.434Z,43.37
2019-03-01T03:21:46.675Z,42.77
2019-03-01T03:22:17.922Z,43.77
2019-03-01T03:22:49.159Z,49.53
2019-03-01T03:23:20.397Z,50.03
2019-03-01T03:23:51.777Z,38.73
2019-03-01T03:24:23.050Z,35.67
2019-03-01T03:24:54.260Z,41.37
2019-03-01T03:25:25.404Z,37.17
2019-03-01T03:25:56.707Z,35.50
2019-03-01T03:26:27.875Z,35.50
2019-03-01T03:26:59.069Z,36.00
2019-03-01T03:27:30.237Z,35.53
2019-03-01T03:28:01.429Z,38.73
2019-03-01T03:28:33.608Z,38.37
2019-03-01T03:29:04.768Z,42.30
2019-03-01T03:29:35.927Z,39.13
2019-03-01T03:30:18.293Z,46.07
2019-03-01T03:30:49.444Z,42.07
2019-03-01T03:31:20.609Z,41.07
2019-03-01T03:31:51.898Z,39.63
2019-03-01T03:32:23.213Z,42.30
2019-03-01T03:32:54.400Z,50.93
2019-03-01T03:33:26.023Z,43.97
2019-03-01T03:33:57.202Z,42.30
2019-03-01T03:34:28.465Z,46.17
2019-03-01T03:34:59.702Z,42.77
2019-03-01T03:35:30.860Z,38.10
2019-03-01T03:36:02.011Z,39.10
2019-03-01T03:36:33.199Z,39.00
2019-03-01T03:37:04.611Z,41.37
2019-03-01T03:37:35.772Z,38.53
2019-03-01T03:38:06.947Z,38.00
2019-03-01T03:38:38.095Z,36.90
2019-03-01T03:39:09.937Z,41.03
2019-03-01T03:39:41.114Z,33.77
2019-03-01T03:40:13.781Z,34.00
2019-03-01T03:40:44.945Z,33.73
2019-03-01T03:41:16.196Z,33.87
2019-03-01T03:41:47.345Z,33.53
2019-03-01T03:42:18.541Z,31.63
2019-03-01T03:42:49.719Z,34.60
2019-03-01T03:43:22.862Z,33.03
2019-03-01T03:43:53.978Z,34.37
2019-03-01T03:44:25.225Z,35.10
2019-03-01T03:44:56.406Z,38.47
2019-03-01T03:45:27.590Z,39.27
2019-03-01T03:45:58.789Z,39.23
2019-03-01T03:46:29.970Z,43.13
2019-03-01T03:47:01.168Z,36.23
2019-03-01T03:47:32.345Z,40.20
2019-03-01T03:48:03.509Z,37.70
2019-03-01T03:48:36.228Z,38.40
2019-03-01T03:49:07.910Z,38.53
2019-03-01T03:49:39.088Z,36.93
2019-03-01T03:50:14.115Z,36.10
2019-03-01T03:50:45.296Z,35.50
2019-03-01T03:51:16.514Z,36.23
2019-03-01T03:51:47.694Z,38.13
2019-03-01T03:52:18.873Z,35.50
2019-03-01T03:52:50.114Z,35.83
2019-03-01T03:53:21.360Z,35.37
2019-03-01T03:53:52.615Z,32.40
2019-03-01T03:54:23.873Z,30.83
2019-03-01T03:54:55.094Z,33.27
2019-03-01T03:55:26.347Z,35.57
2019-03-01T03:55:57.602Z,30.93
2019-03-01T03:56:28.805Z,35.57
2019-03-01T03:56:59.941Z,31.10
2019-03-01T03:57:31.170Z,38.30
2019-03-01T03:58:02.325Z,46.13
2019-03-01T03:58:33.564Z,42.00
2019-03-01T03:59:04.778Z,34.80
2019-03-01T03:59:35.974Z,38.57
2019-03-01T04:00:14.665Z,37.90
2019-03-01T04:00:45.929Z,43.60
2019-03-01T04:01:17.153Z,43.37
2019-03-01T04:01:48.362Z,45.30
2019-03-01T04:02:19.697Z,41.50
2019-03-01T04:02:50.975Z,38.40
2019-03-01T04:03:22.206Z,37.37
2019-03-01T04:03:53.457Z,37.43
2019-03-01T04:04:24.706Z,38.00
2019-03-01T04:04:56.024Z,37.87
2019-03-01T04:05:27.237Z,37.63
2019-03-01T04:05:58.392Z,38.90
2019-03-01T04:06:29.602Z,36.13
2019-03-01T04:07:00.761Z,32.87
2019-03-01T04:07:31.966Z,33.43
2019-03-01T04:08:03.139Z,36.30
2019-03-01T04:08:34.499Z,35.70
2019-03-01T04:09:05.763Z,29.67
2019-03-01T04:09:38.864Z,30.30
2019-03-01T04:10:10.652Z,30.57
2019-03-01T04:10:41.893Z,30.37
2019-03-01T04:11:13.171Z,34.20
2019-03-01T04:11:44.480Z,32.47
2019-03-01T04:12:15.710Z,35.43
2019-03-01T04:12:47.007Z,38.80
2019-03-01T04:13:18.322Z,37.30
2019-03-01T04:13:49.554Z,39.97
2019-03-01T04:14:20.816Z,36.43
2019-03-01T04:14:52.108Z,40.20
2019-03-01T04:15:23.295Z,30.43
2019-03-01T04:15:54.439Z,33.23
2019-03-01T04:16:25.836Z,35.27
2019-03-01T04:16:56.997Z,33.27
2019-03-01T04:17:28.197Z,35.87
2019-03-01T04:17:59.385Z,32.27
2019-03-01T04:18:30.679Z,35.17
2019-03-01T04:19:01.843Z,29.53
2019-03-01T04:19:33.255Z,30.30
2019-03-01T04:20:09.218Z,29.23
2019-03-01T04:20:40.445Z,34.50
2019-03-01T04:21:12.710Z,33.23
2019-03-01T04:21:43.942Z,29.80
2019-03-01T04:22:15.200Z,33.30
2019-03-01T04:22:46.408Z,28.30
2019-03-01T04:23:17.575Z,32.63
2019-03-01T04:23:48.802Z,30.60
2019-03-01T04:24:19.952Z,31.83
2019-03-01T04:24:51.178Z,33.17
2019-03-01T04:25:22.364Z,34.20
2019-03-01T04:25:53.599Z,37.87
2019-03-01T04:26:24.835Z,30.07
2019-03-01T04:26:56.065Z,34.07
2019-03-01T04:27:27.301Z,35.33
2019-03-01T04:27:58.545Z,40.27
2019-03-01T04:28:29.738Z,36.37
2019-03-01T04:29:00.938Z,33.73
2019-03-01T04:29:32.097Z,35.70
2019-03-01T04:30:08.698Z,36.27
2019-03-01T04:30:39.876Z,36.83
2019-03-01T04:31:11.057Z,32.03
2019-03-01T04:31:42.241Z,32.70
2019-03-01T04:32:13.635Z,30.77
2019-03-01T04:32:44.824Z,32.87
2019-03-01T04:33:16.000Z,32.53
2019-03-01T04:33:47.177Z,32.03
2019-03-01T04:34:18.369Z,32.87
2019-03-01T04:34:49.557Z,34.07
2019-03-01T04:35:20.731Z,31.80
2019-03-01T04:35:51.917Z,34.03
2019-03-01T04:36:23.099Z,34.60
2019-03-01T04:36:54.286Z,28.90
2019-03-01T04:37:26.463Z,34.57
2019-03-01T04:37:57.659Z,35.10
2019-03-01T04:38:28.830Z,32.50
2019-03-01T04:39:00.021Z,32.87
2019-03-01T04:39:31.208Z,32.27
2019-03-01T04:40:04.110Z,32.97
2019-03-01T04:40:35.364Z,34.03
2019-03-01T04:41:06.604Z,30.57
2019-03-01T04:41:37.811Z,31.57
2019-03-01T04:42:08.982Z,37.60
2019-03-01T04:42:40.185Z,32.33
2019-03-01T04:43:11.334Z,44.17
2019-03-01T04:43:42.590Z,40.53
2019-03-01T04:44:13.918Z,46.43
2019-03-01T04:44:45.112Z,39.43
2019-03-01T04:45:17.170Z,36.03
2019-03-01T04:45:48.376Z,38.87
2019-03-01T04:46:19.550Z,32.10
2019-03-01T04:46:50.804Z,36.13
2019-03-01T04:47:21.966Z,37.53
2019-03-01T04:47:53.178Z,38.27
2019-03-01T04:48:24.331Z,34.77
2019-03-01T04:48:55.549Z,37.77
2019-03-01T04:49:26.707Z,34.63
2019-03-01T04:49:57.901Z,40.53
2019-03-01T04:50:29.053Z,44.27
2019-03-01T04:51:00.256Z,45.07
2019-03-01T04:51:39.866Z,42.83
2019-03-01T04:52:25.503Z,38.73
2019-03-01T04:52:56.677Z,39.10
2019-03-01T04:53:27.871Z,36.43
2019-03-01T04:53:59.047Z,38.03
2019-03-01T04:54:31.263Z,45.10
2019-03-01T04:55:11.163Z,38.53
2019-03-01T04:55:42.403Z,38.33
2019-03-01T04:56:13.600Z,39.20
2019-03-01T04:56:44.826Z,47.37
2019-03-01T04:57:15.975Z,36.20
2019-03-01T04:57:47.284Z,38.07
2019-03-01T04:58:18.445Z,39.40
2019-03-01T04:58:49.618Z,40.43
2019-03-01T04:59:20.810Z,40.50
2019-03-01T04:59:52.002Z,38.67
2019-03-01T05:00:23.886Z,41.97
2019-03-01T05:00:55.064Z,43.30
2019-03-01T05:01:26.234Z,40.90
2019-03-01T05:01:57.431Z,38.23
2019-03-01T05:02:28.583Z,34.87
2019-03-01T05:02:59.776Z,35.77
2019-03-01T05:03:30.925Z,32.67
2019-03-01T05:04:02.149Z,35.73
2019-03-01T05:04:33.284Z,41.40
2019-03-01T05:05:04.803Z,35.17
2019-03-01T05:05:35.939Z,36.70
2019-03-01T05:06:07.150Z,36.47
2019-03-01T05:06:38.286Z,28.03
2019-03-01T05:07:09.477Z,29.83
2019-03-01T05:07:40.637Z,30.70
2019-03-01T05:08:11.855Z,26.23
2019-03-01T05:08:43.003Z,29.93
2019-03-01T05:09:14.191Z,28.83
2019-03-01T05:09:45.467Z,38.23
2019-03-01T05:10:16.777Z,27.63
2019-03-01T05:10:47.940Z,32.30
2019-03-01T05:11:19.123Z,40.67
2019-03-01T05:11:50.284Z,37.97
2019-03-01T05:12:21.485Z,41.17
2019-03-01T05:12:52.663Z,34.77
2019-03-01T05:13:23.880Z,36.40
2019-03-01T05:13:55.039Z,38.27
2019-03-01T05:14:26.233Z,31.83
2019-03-01T05:14:57.393Z,35.77
2019-03-01T05:15:28.620Z,35.30
2019-03-01T05:15:59.805Z,34.83
2019-03-01T05:16:31.084Z,38.73
2019-03-01T05:17:02.335Z,38.47
2019-03-01T05:17:33.552Z,40.50
2019-03-01T05:18:05.070Z,40.93
2019-03-01T05:18:36.348Z,35.53
2019-03-01T05:19:07.598Z,35.07
2019-03-01T05:19:38.920Z,37.97
2019-03-01T05:20:10.254Z,36.90
2019-03-01T05:20:41.524Z,35.67
2019-03-01T05:21:12.778Z,35.17
2019-03-01T05:21:44.944Z,37.17
2019-03-01T05:22:16.139Z,37.97
2019-03-01T05:22:47.321Z,37.03
2019-03-01T05:23:19.605Z,36.57
2019-03-01T05:23:51.305Z,36.57
2019-03-01T05:24:22.595Z,37.87
2019-03-01T05:24:53.757Z,37.93
2019-03-01T05:25:24.975Z,46.47
2019-03-01T05:25:56.117Z,42.03
2019-03-01T05:26:27.343Z,41.70
2019-03-01T05:26:58.501Z,45.43
2019-03-01T05:27:29.692Z,40.90
2019-03-01T05:28:00.836Z,47.73
2019-03-01T05:28:32.045Z,35.80
2019-03-01T05:29:03.212Z,37.63
2019-03-01T05:29:34.621Z,42.00
2019-03-01T05:30:09.979Z,44.13
2019-03-01T05:30:41.222Z,36.97
2019-03-01T05:31:12.402Z,43.57
2019-03-01T05:31:43.636Z,42.47
2019-03-01T05:32:14.863Z,45.23
2019-03-01T05:32:46.108Z,44.33
2019-03-01T05:33:17.330Z,49.90
2019-03-01T05:33:48.548Z,46.67
2019-03-01T05:34:19.784Z,42.57
2019-03-01T05:34:51.028Z,42.07
2019-03-01T05:35:22.356Z,48.40
2019-03-01T05:35:53.572Z,47.70
2019-03-01T05:36:24.766Z,45.50
2019-03-01T05:36:55.927Z,39.33
2019-03-01T05:37:27.116Z,31.27
2019-03-01T05:37:58.267Z,41.57
2019-03-01T05:38:29.478Z,34.73
2019-03-01T05:39:01.638Z,35.10
2019-03-01T05:39:35.163Z,42.23
2019-03-01T05:40:10.247Z,33.03
2019-03-01T05:40:41.444Z,36.60
2019-03-01T05:41:12.655Z,38.70
2019-03-01T05:41:43.911Z,36.33
2019-03-01T05:42:15.115Z,41.10
2019-03-01T05:42:46.360Z,43.60
2019-03-01T05:43:17.603Z,42.40
2019-03-01T05:43:48.841Z,43.63
2019-03-01T05:44:20.069Z,42.23
2019-03-01T05:44:51.303Z,42.87
2019-03-01T05:45:26.029Z,49.63
2019-03-01T05:45:57.281Z,56.57
2019-03-01T05:46:28.505Z,56.87
2019-03-01T05:46:59.659Z,45.43
2019-03-01T05:47:30.862Z,53.17
2019-03-01T05:48:02.021Z,46.30
2019-03-01T05:48:34.620Z,42.03
2019-03-01T05:49:05.773Z,37.00
2019-03-01T05:49:36.972Z,36.70
2019-03-01T05:50:11.806Z,34.87
2019-03-01T05:50:43.022Z,34.37
2019-03-01T05:51:14.192Z,33.67
2019-03-01T05:51:45.407Z,36.27
2019-03-01T05:52:16.564Z,45.63
2019-03-01T05:52:47.762Z,45.43
2019-03-01T05:53:18.961Z,47.40
2019-03-01T05:53:50.141Z,54.00
2019-03-01T05:54:21.320Z,61.10
2019-03-01T05:54:53.518Z,62.80
2019-03-01T05:55:24.718Z,66.87
2019-03-01T05:55:55.950Z,77.80
2019-03-01T05:56:27.188Z,71.53
2019-03-01T05:56:58.343Z,68.30
2019-03-01T05:57:29.530Z,43.53
2019-03-01T05:58:30.870Z,61.37
2019-03-01T05:59:16.623Z,75.27
2019-03-01T05:59:48.823Z,63.33
2019-03-01T06:00:20.004Z,66.43
2019-03-01T06:00:53.585Z,51.97
2019-03-01T06:01:30.175Z,42.57
2019-03-01T06:02:21.909Z,37.57
2019-03-01T06:02:58.773Z,32.97
2019-03-01T06:03:38.386Z,32.80
2019-03-01T06:04:15.163Z,31.43
2019-03-01T06:04:54.143Z,27.43
2019-03-01T06:05:25.458Z,31.67
2019-03-01T06:05:56.656Z,25.07
2019-03-01T06:07:00.368Z,28.97
2019-03-01T06:07:54.432Z,30.67
2019-03-01T06:08:57.688Z,35.07
2019-03-01T06:09:58.316Z,47.63
2019-03-01T06:10:40.992Z,50.67
2019-03-01T06:11:17.868Z,51.60
2019-03-01T06:12:11.151Z,55.03
2019-03-01T06:13:10.501Z,54.33
2019-03-01T06:14:04.560Z,57.47
2019-03-01T06:14:55.587Z,51.57
2019-03-01T06:15:46.707Z,45.73
2019-03-01T06:16:26.569Z,43.07
2019-03-01T06:17:24.245Z,38.77
2019-03-01T06:18:18.914Z,34.77
2019-03-01T06:19:31.137Z,29.90
2019-03-01T06:20:22.893Z,31.43
2019-03-01T06:21:23.566Z,33.87
2019-03-01T06:22:06.248Z,28.77
2019-03-01T06:22:51.426Z,25.83
2019-03-01T06:24:03.160Z,32.63
2019-03-01T06:25:06.042Z,27.63
2019-03-01T06:25:57.229Z,29.20
2019-03-01T06:26:51.766Z,26.27
2019-03-01T06:28:04.548Z,26.50
2019-03-01T06:28:49.715Z,33.77
2019-03-01T06:29:29.318Z,28.90
2019-03-01T06:30:14.551Z,32.37
2019-03-01T06:31:03.334Z,30.73
2019-03-01T06:31:51.581Z,30.20
2019-03-01T06:32:29.451Z,31.63
2019-03-01T06:33:50.267Z,30.43
2019-03-01T06:34:38.675Z,37.57
2019-03-01T06:35:21.143Z,40.67
2019-03-01T06:36:19.470Z,38.57
2019-03-01T06:37:08.262Z,41.80
2019-03-01T06:38:04.690Z,38.77
2019-03-01T06:38:50.460Z,41.97
2019-03-01T06:39:48.481Z,47.23
2019-03-01T06:40:50.487Z,40.47
2019-03-01T06:41:36.390Z,42.63
2019-03-01T06:42:19.261Z,42.20
2019-03-01T06:43:01.650Z,49.83
2019-03-01T06:43:38.539Z,49.70
2019-03-01T06:44:27.300Z,52.67
2019-03-01T06:45:21.980Z,39.63
2019-03-01T06:46:39.543Z,45.17
2019-03-01T06:47:37.943Z,39.70
2019-03-01T06:48:11.062Z,35.13
2019-03-01T06:48:46.707Z,32.87
2019-03-01T06:49:19.793Z,30.03
2019-03-01T06:49:55.729Z,27.83
2019-03-01T06:50:28.859Z,31.37
2019-03-01T06:51:01.965Z,30.00
2019-03-01T06:51:33.215Z,30.27
2019-03-01T06:52:04.729Z,31.37
2019-03-01T06:52:35.970Z,36.67
2019-03-01T06:53:07.441Z,40.47
2019-03-01T06:53:38.678Z,43.27
2019-03-01T06:54:09.892Z,45.87
2019-03-01T06:54:41.119Z,42.70
2019-03-01T06:55:35.272Z,47.93
2019-03-01T06:56:06.915Z,40.57
2019-03-01T06:56:38.219Z,38.53
2019-03-01T06:57:09.349Z,42.77
2019-03-01T06:57:40.555Z,36.67
2019-03-01T06:58:16.708Z,38.40
2019-03-01T06:58:47.942Z,33.13
2019-03-01T06:59:19.104Z,37.13
2019-03-01T06:59:50.278Z,39.67
2019-03-01T07:00:21.552Z,35.53
2019-03-01T07:00:54.615Z,31.70
2019-03-01T07:01:27.164Z,30.53
2019-03-01T07:01:58.330Z,27.70
2019-03-01T07:02:31.512Z,29.63
2019-03-01T07:03:02.873Z,29.63
2019-03-01T07:03:34.051Z,30.10
2019-03-01T07:04:06.505Z,29.87
2019-03-01T07:04:37.665Z,28.43
2019-03-01T07:05:08.971Z,28.53
2019-03-01T07:05:40.127Z,24.63
2019-03-01T07:06:11.289Z,28.73
2019-03-01T07:06:42.451Z,28.87
2019-03-01T07:07:13.621Z,27.73
2019-03-01T07:07:44.768Z,31.47
2019-03-01T07:08:15.942Z,25.13
2019-03-01T07:08:47.101Z,25.57
2019-03-01T07:09:18.237Z,25.90
2019-03-01T07:09:49.409Z,31.77
2019-03-01T07:10:20.580Z,28.50
2019-03-01T07:10:52.763Z,32.07
2019-03-01T07:11:23.968Z,34.53
2019-03-01T07:11:55.109Z,33.90
2019-03-01T07:12:26.310Z,33.43
2019-03-01T07:12:57.449Z,36.63
2019-03-01T07:13:28.670Z,37.90
2019-03-01T07:13:59.822Z,40.63
2019-03-01T07:14:31.020Z,39.87
2019-03-01T07:15:07.147Z,30.07
2019-03-01T07:15:38.222Z,33.00
2019-03-01T07:16:09.366Z,30.03
2019-03-01T07:16:40.573Z,35.27
2019-03-01T07:17:11.722Z,31.77
2019-03-01T07:17:42.948Z,28.70
2019-03-01T07:18:14.152Z,32.00
2019-03-01T07:18:45.356Z,33.83
2019-03-01T07:19:16.515Z,31.67
2019-03-01T07:19:47.738Z,35.73
2019-03-01T07:20:19.009Z,39.50
2019-03-01T07:20:50.178Z,34.53
2019-03-01T07:21:21.359Z,38.07
2019-03-01T07:21:52.538Z,39.93
2019-03-01T07:22:23.715Z,42.53
2019-03-01T07:22:54.935Z,44.03
2019-03-01T07:23:26.115Z,46.30
2019-03-01T07:23:57.317Z,49.93
2019-03-01T07:24:28.565Z,41.20
2019-03-01T07:24:59.752Z,32.57
2019-03-01T07:25:30.960Z,37.37
2019-03-01T07:26:02.147Z,38.77
2019-03-01T07:26:33.326Z,37.27
2019-03-01T07:27:04.675Z,39.00
2019-03-01T07:27:35.856Z,46.27